Time;durP1;ratioP1;P1;durP2;ratioP2;P2;SDS_P1;SDS_P2;PMS_P1;PMS_P2;Temp;Humidity;BMP_temperature;BMP_pressure;BME280_temperature;BME280_humidity;BME280_pressure;Samples;Min_cycle;Max_cycle;Signal;HPM_P1;HPM_P2
2023/09/28 00:00:37;;;;;;;16.15;14.07;;;;;;;;;;5049532;28;20047;-76
2023/09/28 00:03:09;;;;;;;15.98;13.80;;;;;;;;;;5052305;28;20040;-75
2023/09/28 00:05:35;;;;;;;16.52;14.13;;;;;;;;;;5048444;28;20189;-75
2023/09/28 00:08:04;;;;;;;15.30;13.63;;;;;;;;;;5048017;28;20056;-75
2023/09/28 00:10:31;;;;;;;14.23;12.75;;;;;;;;;;5046017;28;20045;-76
2023/09/28 00:12:57;;;;;;;17.30;13.18;;;;;;;;;;5048505;28;20041;-76
2023/09/28 00:15:26;;;;;;;14.63;13.07;;;;;;;;;;5042111;28;20083;-76
2023/09/28 00:17:54;;;;;;;14.77;12.65;;;;;;;;;;5035794;28;20607;-76
2023/09/28 00:20:22;;;;;;;15.10;12.20;;;;;;;;;;5061011;28;20075;-76
2023/09/28 00:22:49;;;;;;;13.25;11.70;;;;;;;;;;5067796;28;20044;-76
2023/09/28 00:25:19;;;;;;;13.95;12.55;;;;;;;;;;5042884;28;20643;-76
2023/09/28 00:27:50;;;;;;;13.38;11.93;;;;;;;;;;5053109;28;20040;-76
2023/09/28 00:30:19;;;;;;;13.65;12.07;;;;;;;;;;5059031;28;20059;-76
2023/09/28 00:32:46;;;;;;;19.20;12.18;;;;;;;;;;5065949;28;20197;-76
2023/09/28 00:35:12;;;;;;;12.55;11.27;;;;;;;;;;5050799;28;20075;-76
2023/09/28 00:37:38;;;;;;;14.23;11.18;;;;;;;;;;5057889;28;20067;-77
2023/09/28 00:40:16;;;;;;;13.82;11.52;;;;;;;;;;5052928;28;20083;-76
2023/09/28 00:42:43;;;;;;;15.15;11.48;;;;;;;;;;5054291;28;20396;-76
2023/09/28 00:45:10;;;;;;;14.40;11.77;;;;;;;;;;5050253;28;20082;-76
2023/09/28 00:47:38;;;;;;;13.82;11.07;;;;;;;;;;5062974;28;20087;-77
2023/09/28 00:50:09;;;;;;;13.35;10.70;;;;;;;;;;5058968;28;20121;-76
2023/09/28 00:52:35;;;;;;;12.05;10.60;;;;;;;;;;5039350;28;20051;-75
2023/09/28 00:55:01;;;;;;;12.23;10.93;;;;;;;;;;5058978;28;20149;-76
2023/09/28 00:57:27;;;;;;;14.70;11.18;;;;;;;;;;5036823;28;20122;-76
2023/09/28 00:59:54;;;;;;;13.13;11.48;;;;;;;;;;5057992;28;20044;-76
2023/09/28 01:02:20;;;;;;;15.82;11.05;;;;;;;;;;5057048;28;20057;-77
2023/09/28 01:04:48;;;;;;;15.43;12.05;;;;;;;;;;5041641;28;20361;-76
2023/09/28 01:07:14;;;;;;;14.20;11.82;;;;;;;;;;5065419;28;20125;-76
2023/09/28 01:09:40;;;;;;;12.73;11.25;;;;;;;;;;5045934;28;20037;-76
2023/09/28 01:12:08;;;;;;;15.20;11.52;;;;;;;;;;5041669;28;20506;-76
2023/09/28 01:14:35;;;;;;;14.82;11.73;;;;;;;;;;5051509;28;20072;-76
2023/09/28 01:17:01;;;;;;;12.50;10.63;;;;;;;;;;5054389;28;20045;-76
2023/09/28 01:19:27;;;;;;;13.20;10.23;;;;;;;;;;5044121;28;20056;-76
2023/09/28 01:21:53;;;;;;;11.82;10.63;;;;;;;;;;5062997;28;20075;-76
2023/09/28 01:24:20;;;;;;;11.40;9.85;;;;;;;;;;5048325;28;20043;-76
2023/09/28 01:26:46;;;;;;;11.82;10.07;;;;;;;;;;5059546;28;20040;-76
2023/09/28 01:29:12;;;;;;;12.52;10.60;;;;;;;;;;5046165;28;20647;-76
2023/09/28 01:31:38;;;;;;;12.82;10.18;;;;;;;;;;5044363;28;20048;-76
2023/09/28 01:34:04;;;;;;;14.90;10.43;;;;;;;;;;5046815;28;20045;-76
2023/09/28 01:36:30;;;;;;;13.02;10.32;;;;;;;;;;5067305;28;20049;-77
2023/09/28 01:39:03;;;;;;;12.50;9.77;;;;;;;;;;5051463;28;20063;-76
2023/09/28 01:41:29;;;;;;;13.02;9.35;;;;;;;;;;5044673;28;20056;-76
2023/09/28 01:43:55;;;;;;;11.68;9.75;;;;;;;;;;5046785;28;20131;-77
2023/09/28 01:46:21;;;;;;;12.63;10.05;;;;;;;;;;5052864;28;20052;-76
2023/09/28 01:48:47;;;;;;;14.48;9.65;;;;;;;;;;5051308;28;20044;-76
2023/09/28 01:51:13;;;;;;;15.75;10.13;;;;;;;;;;5049472;28;20071;-76
2023/09/28 01:53:39;;;;;;;12.15;9.10;;;;;;;;;;5065975;28;20040;-76
2023/09/28 01:56:05;;;;;;;11.15;9.32;;;;;;;;;;5067516;28;20547;-76
2023/09/28 01:58:31;;;;;;;13.00;9.23;;;;;;;;;;5052994;28;20044;-76
2023/09/28 02:00:57;;;;;;;12.00;8.60;;;;;;;;;;5044437;28;20238;-76
2023/09/28 02:03:23;;;;;;;10.32;8.85;;;;;;;;;;5052932;28;20049;-77
2023/09/28 02:05:50;;;;;;;11.48;8.77;;;;;;;;;;5045735;28;20052;-76
2023/09/28 02:08:16;;;;;;;11.30;8.65;;;;;;;;;;5050357;28;20088;-76
2023/09/28 02:10:42;;;;;;;12.70;8.95;;;;;;;;;;5045660;28;20128;-76
2023/09/28 02:13:09;;;;;;;10.40;8.48;;;;;;;;;;5042251;28;20059;-76
2023/09/28 02:15:35;;;;;;;11.10;8.63;;;;;;;;;;5048567;28;20060;-76
2023/09/28 02:18:01;;;;;;;11.85;8.68;;;;;;;;;;5066029;28;20040;-77
2023/09/28 02:20:29;;;;;;;12.38;9.05;;;;;;;;;;5049620;28;20059;-77
2023/09/28 02:22:56;;;;;;;11.30;8.60;;;;;;;;;;5044782;28;20085;-77
2023/09/28 02:25:22;;;;;;;10.63;8.48;;;;;;;;;;5047158;28;20087;-77
2023/09/28 02:27:49;;;;;;;12.13;8.63;;;;;;;;;;5051015;28;20080;-76
2023/09/28 02:30:19;;;;;;;9.88;8.88;;;;;;;;;;5046350;28;20102;-77
2023/09/28 02:32:45;;;;;;;11.15;8.75;;;;;;;;;;5056630;28;20059;-77
2023/09/28 02:35:14;;;;;;;12.00;8.88;;;;;;;;;;5061017;28;20488;-76
2023/09/28 02:37:40;;;;;;;13.93;8.90;;;;;;;;;;5044376;28;20452;-77
2023/09/28 02:40:09;;;;;;;10.65;9.02;;;;;;;;;;5048557;28;20388;-77
2023/09/28 02:42:35;;;;;;;13.82;8.20;;;;;;;;;;5060574;28;20412;-77
2023/09/28 02:45:02;;;;;;;9.27;8.15;;;;;;;;;;5066230;28;20079;-77
2023/09/28 02:47:29;;;;;;;12.27;9.07;;;;;;;;;;5041393;28;20464;-77
2023/09/28 02:49:55;;;;;;;12.23;8.57;;;;;;;;;;5041294;28;20385;-77
2023/09/28 02:52:21;;;;;;;11.73;9.25;;;;;;;;;;5047909;28;20088;-77
2023/09/28 02:54:48;;;;;;;11.07;8.98;;;;;;;;;;5064701;28;20048;-77
2023/09/28 02:57:14;;;;;;;11.27;9.00;;;;;;;;;;5048723;28;20056;-76
2023/09/28 02:59:41;;;;;;;12.10;9.45;;;;;;;;;;5049626;28;20480;-77
2023/09/28 03:02:09;;;;;;;13.52;9.30;;;;;;;;;;5042003;28;20053;-76
2023/09/28 03:04:35;;;;;;;14.63;10.20;;;;;;;;;;5057598;28;20115;-76
2023/09/28 03:07:02;;;;;;;13.85;9.95;;;;;;;;;;5044342;28;20131;-76
2023/09/28 03:09:28;;;;;;;18.85;10.80;;;;;;;;;;5049135;28;20522;-76
2023/09/28 03:11:54;;;;;;;14.88;9.90;;;;;;;;;;5055434;28;20048;-77
2023/09/28 03:14:21;;;;;;;13.65;9.18;;;;;;;;;;5055027;28;20510;-77
2023/09/28 03:16:47;;;;;;;12.90;8.98;;;;;;;;;;5042164;28;20136;-76
2023/09/28 03:19:13;;;;;;;11.68;8.32;;;;;;;;;;5052688;28;20198;-76
2023/09/28 03:21:41;;;;;;;12.85;7.43;;;;;;;;;;5041074;28;20116;-76
2023/09/28 03:24:08;;;;;;;11.73;6.55;;;;;;;;;;5055580;28;20524;-76
2023/09/28 03:26:34;;;;;;;11.15;5.78;;;;;;;;;;5053647;28;20048;-76
2023/09/28 03:29:01;;;;;;;14.00;5.97;;;;;;;;;;5041348;28;20400;-77
2023/09/28 03:31:27;;;;;;;11.00;5.47;;;;;;;;;;5048705;28;20041;-76
2023/09/28 03:33:58;;;;;;;9.45;4.82;;;;;;;;;;5042192;28;20409;-77
2023/09/28 03:36:24;;;;;;;9.23;3.92;;;;;;;;;;5063005;28;20139;-77
2023/09/28 03:38:50;;;;;;;7.15;3.40;;;;;;;;;;5043869;28;20068;-75
2023/09/28 03:41:17;;;;;;;10.73;3.20;;;;;;;;;;5042738;28;20521;-76
2023/09/28 03:43:48;;;;;;;9.70;3.45;;;;;;;;;;5054480;28;20484;-76
2023/09/28 03:46:19;;;;;;;8.30;3.50;;;;;;;;;;5048309;28;20151;-77
2023/09/28 03:48:45;;;;;;;18.67;4.38;;;;;;;;;;5043957;28;20049;-76
2023/09/28 03:51:11;;;;;;;11.50;3.75;;;;;;;;;;5041048;28;20145;-76
2023/09/28 03:53:41;;;;;;;11.63;4.10;;;;;;;;;;5053304;28;20044;-76
2023/09/28 03:56:07;;;;;;;19.88;4.68;;;;;;;;;;5047158;28;20044;-76
2023/09/28 03:58:34;;;;;;;15.85;4.10;;;;;;;;;;5057475;28;20040;-76
2023/09/28 04:01:03;;;;;;;26.80;5.15;;;;;;;;;;5046837;28;20124;-76
2023/09/28 04:03:29;;;;;;;16.08;4.35;;;;;;;;;;5046237;28;20123;-76
2023/09/28 04:05:55;;;;;;;20.35;5.13;;;;;;;;;;5043741;28;20044;-76
2023/09/28 04:08:22;;;;;;;19.85;5.03;;;;;;;;;;5046095;28;20052;-77
2023/09/28 04:10:50;;;;;;;25.05;6.30;;;;;;;;;;5045161;28;20053;-76
2023/09/28 04:13:17;;;;;;;17.13;5.22;;;;;;;;;;5045933;28;20048;-76
2023/09/28 04:15:43;;;;;;;19.20;5.60;;;;;;;;;;5050716;28;20044;-76
2023/09/28 04:18:09;;;;;;;24.85;5.60;;;;;;;;;;5064568;28;20041;-77
2023/09/28 04:20:35;;;;;;;21.02;4.85;;;;;;;;;;5051513;28;21057;-77
2023/09/28 04:23:05;;;;;;;26.13;5.20;;;;;;;;;;5058535;28;20040;-76
2023/09/28 04:25:33;;;;;;;20.85;5.05;;;;;;;;;;5046466;28;20044;-76
2023/09/28 04:27:59;;;;;;;23.13;5.63;;;;;;;;;;5053060;28;20552;-77
2023/09/28 04:30:25;;;;;;;26.17;5.10;;;;;;;;;;5050791;28;20450;-77
2023/09/28 04:32:51;;;;;;;21.42;5.45;;;;;;;;;;5062837;28;20048;-77
2023/09/28 04:35:17;;;;;;;20.42;5.15;;;;;;;;;;5063929;28;20040;-76
2023/09/28 04:37:43;;;;;;;24.85;5.38;;;;;;;;;;5060388;28;20107;-77
2023/09/28 04:40:10;;;;;;;30.15;5.80;;;;;;;;;;5050870;28;20055;-77
2023/09/28 04:42:38;;;;;;;32.55;6.10;;;;;;;;;;5050845;28;20044;-77
2023/09/28 04:45:05;;;;;;;24.83;5.13;;;;;;;;;;5046854;28;20110;-77
2023/09/28 04:47:32;;;;;;;25.10;5.63;;;;;;;;;;5064136;28;20052;-77
2023/09/28 04:49:58;;;;;;;22.60;4.95;;;;;;;;;;5052601;28;20118;-77
2023/09/28 04:52:24;;;;;;;18.75;5.00;;;;;;;;;;5053870;28;20134;-77
2023/09/28 04:54:51;;;;;;;22.25;5.43;;;;;;;;;;5051552;28;20048;-77
2023/09/28 04:57:20;;;;;;;24.00;5.40;;;;;;;;;;5053222;28;20056;-77
2023/09/28 04:59:46;;;;;;;24.80;5.35;;;;;;;;;;5054843;28;20122;-77
2023/09/28 05:02:12;;;;;;;21.38;5.43;;;;;;;;;;5061713;28;20045;-77
2023/09/28 05:04:38;;;;;;;25.08;5.95;;;;;;;;;;5072489;28;20510;-76
2023/09/28 05:07:04;;;;;;;23.75;5.38;;;;;;;;;;5046619;28;20091;-76
2023/09/28 05:09:31;;;;;;;24.30;5.80;;;;;;;;;;5059003;28;20162;-77
2023/09/28 05:11:59;;;;;;;18.55;5.03;;;;;;;;;;5047758;28;20044;-76
2023/09/28 05:14:25;;;;;;;22.88;4.88;;;;;;;;;;5055442;28;20052;-76
2023/09/28 05:16:52;;;;;;;22.20;5.55;;;;;;;;;;5046796;28;20041;-77
2023/09/28 05:19:18;;;;;;;23.77;5.90;;;;;;;;;;5050521;28;20056;-76
2023/09/28 05:21:44;;;;;;;22.75;5.55;;;;;;;;;;5043868;28;20075;-76
2023/09/28 05:24:10;;;;;;;26.58;7.53;;;;;;;;;;5066971;28;20045;-76
2023/09/28 05:26:37;;;;;;;20.60;4.93;;;;;;;;;;5049449;28;20051;-77
2023/09/28 05:29:03;;;;;;;27.05;5.13;;;;;;;;;;5048073;28;20480;-76
2023/09/28 05:31:30;;;;;;;24.77;5.68;;;;;;;;;;5047560;28;20135;-77
2023/09/28 05:33:56;;;;;;;32.83;6.10;;;;;;;;;;5049604;28;20094;-77
2023/09/28 05:36:22;;;;;;;26.67;5.63;;;;;;;;;;5062219;28;20075;-76
2023/09/28 05:38:48;;;;;;;28.17;5.60;;;;;;;;;;5049651;28;20503;-76
2023/09/28 05:41:14;;;;;;;27.08;6.13;;;;;;;;;;5044167;28;20118;-76
2023/09/28 05:43:40;;;;;;;31.17;6.03;;;;;;;;;;5046779;28;20120;-76
2023/09/28 05:46:06;;;;;;;25.27;6.28;;;;;;;;;;5044795;28;20545;-76
2023/09/28 05:48:32;;;;;;;23.23;5.38;;;;;;;;;;5063976;28;20049;-76
2023/09/28 05:50:58;;;;;;;27.10;6.32;;;;;;;;;;5041982;28;20442;-77
2023/09/28 05:53:24;;;;;;;26.27;5.65;;;;;;;;;;5049533;28;20136;-75
2023/09/28 05:55:51;;;;;;;27.13;6.20;;;;;;;;;;5047844;28;20458;-76
2023/09/28 05:58:17;;;;;;;22.58;5.30;;;;;;;;;;5045993;28;20530;-76
2023/09/28 06:00:44;;;;;;;30.15;6.35;;;;;;;;;;5044898;28;20080;-77
2023/09/28 06:03:10;;;;;;;18.25;5.28;;;;;;;;;;5047941;28;20453;-76
2023/09/28 06:05:36;;;;;;;20.98;5.63;;;;;;;;;;5047191;28;20174;-76
2023/09/28 06:08:02;;;;;;;22.55;5.85;;;;;;;;;;5038681;28;20046;-76
2023/09/28 06:10:28;;;;;;;19.73;5.75;;;;;;;;;;5046198;28;20853;-77
2023/09/28 06:12:54;;;;;;;21.92;5.28;;;;;;;;;;5058422;28;20044;-77
2023/09/28 06:15:20;;;;;;;20.52;5.10;;;;;;;;;;5045003;28;20048;-76
2023/09/28 06:17:46;;;;;;;27.45;5.25;;;;;;;;;;5047372;28;20041;-76
2023/09/28 06:20:13;;;;;;;19.50;5.00;;;;;;;;;;5044564;28;20435;-76
2023/09/28 06:22:40;;;;;;;23.33;6.00;;;;;;;;;;5039121;28;20411;-77
2023/09/28 06:25:08;;;;;;;22.48;5.70;;;;;;;;;;5052186;28;20489;-76
2023/09/28 06:27:34;;;;;;;26.20;5.82;;;;;;;;;;5049759;28;20053;-77
2023/09/28 06:30:03;;;;;;;18.42;4.70;;;;;;;;;;5048762;28;20036;-76
2023/09/28 06:32:29;;;;;;;21.65;5.07;;;;;;;;;;5050517;28;20488;-77
2023/09/28 06:34:55;;;;;;;20.88;5.55;;;;;;;;;;5040287;28;20139;-76
2023/09/28 06:37:21;;;;;;;30.92;6.45;;;;;;;;;;5043065;28;20499;-76
2023/09/28 06:39:47;;;;;;;18.73;4.75;;;;;;;;;;5044503;28;20086;-76
2023/09/28 06:42:13;;;;;;;21.13;5.32;;;;;;;;;;5045256;28;20055;-77
2023/09/28 06:44:39;;;;;;;23.83;5.13;;;;;;;;;;5045950;28;20079;-77
2023/09/28 06:47:05;;;;;;;30.85;6.32;;;;;;;;;;5038660;28;20048;-78
2023/09/28 06:49:32;;;;;;;19.00;4.82;;;;;;;;;;5041420;28;20050;-77
2023/09/28 06:51:58;;;;;;;32.05;5.97;;;;;;;;;;5036860;28;20032;-76
2023/09/28 06:54:24;;;;;;;26.80;5.60;;;;;;;;;;5045569;28;20055;-77
2023/09/28 06:56:51;;;;;;;21.48;5.82;;;;;;;;;;5042185;28;20457;-76
2023/09/28 06:59:18;;;;;;;26.85;6.28;;;;;;;;;;5043234;28;20105;-77
2023/09/28 07:01:44;;;;;;;18.77;4.95;;;;;;;;;;5050724;28;20052;-77
2023/09/28 07:04:11;;;;;;;33.80;5.97;;;;;;;;;;5046759;28;20076;-77
2023/09/28 07:06:37;;;;;;;25.88;5.55;;;;;;;;;;5040833;28;20118;-77
2023/09/28 07:09:05;;;;;;;23.67;5.50;;;;;;;;;;5047141;28;20041;-76
2023/09/28 07:11:32;;;;;;;20.70;5.57;;;;;;;;;;5061215;28;20049;-77
2023/09/28 07:13:58;;;;;;;27.17;6.32;;;;;;;;;;5055077;28;20063;-77
2023/09/28 07:16:24;;;;;;;26.73;5.85;;;;;;;;;;5061839;28;20075;-78
2023/09/28 07:18:50;;;;;;;24.83;5.95;;;;;;;;;;5049527;28;20133;-77
2023/09/28 07:21:16;;;;;;;20.80;5.45;;;;;;;;;;5050490;28;20056;-76
2023/09/28 07:23:42;;;;;;;20.30;5.55;;;;;;;;;;5045551;28;20050;-77
2023/09/28 07:26:16;;;;;;;21.27;5.43;;;;;;;;;;5060050;28;20056;-77
2023/09/28 07:28:42;;;;;;;28.33;6.30;;;;;;;;;;5047660;28;20045;-76
2023/09/28 07:31:08;;;;;;;22.33;5.93;;;;;;;;;;5037715;28;20057;-77
2023/09/28 07:33:35;;;;;;;28.05;5.93;;;;;;;;;;5054649;28;20493;-76
2023/09/28 07:36:05;;;;;;;23.58;5.68;;;;;;;;;;5037482;28;20084;-76
2023/09/28 07:38:32;;;;;;;22.75;5.35;;;;;;;;;;5049175;28;20049;-76
2023/09/28 07:40:58;;;;;;;29.85;6.22;;;;;;;;;;5048235;28;20490;-76
2023/09/28 07:43:24;;;;;;;26.23;5.32;;;;;;;;;;5038027;28;20399;-77
2023/09/28 07:45:51;;;;;;;25.13;6.18;;;;;;;;;;5062085;28;20040;-77
2023/09/28 07:48:17;;;;;;;25.02;6.65;;;;;;;;;;5042514;28;20536;-77
2023/09/28 07:50:43;;;;;;;21.77;6.30;;;;;;;;;;5049369;28;20131;-77
2023/09/28 07:53:09;;;;;;;27.75;5.53;;;;;;;;;;5061116;28;20045;-77
2023/09/28 07:55:35;;;;;;;25.20;5.78;;;;;;;;;;5052940;28;20128;-77
2023/09/28 07:58:01;;;;;;;28.95;5.70;;;;;;;;;;5051042;28;20518;-77
2023/09/28 08:00:27;;;;;;;26.92;6.00;;;;;;;;;;5067765;28;20051;-76
2023/09/28 08:02:53;;;;;;;26.13;5.50;;;;;;;;;;5062325;28;20053;-77
2023/09/28 08:05:21;;;;;;;20.23;5.72;;;;;;;;;;5053545;28;20135;-76
2023/09/28 08:07:48;;;;;;;24.00;5.43;;;;;;;;;;5041283;28;20539;-76
2023/09/28 08:10:14;;;;;;;25.38;5.85;;;;;;;;;;5051596;28;20154;-77
2023/09/28 08:12:42;;;;;;;24.15;6.10;;;;;;;;;;5045963;28;20044;-77
2023/09/28 08:15:08;;;;;;;22.25;5.65;;;;;;;;;;5042411;28;20060;-76
2023/09/28 08:17:39;;;;;;;23.98;5.90;;;;;;;;;;5041391;28;20126;-76
2023/09/28 08:20:07;;;;;;;25.60;6.28;;;;;;;;;;5049407;28;20084;-76
2023/09/28 08:22:35;;;;;;;21.10;5.90;;;;;;;;;;5044700;28;20051;-75
2023/09/28 08:25:01;;;;;;;27.80;6.03;;;;;;;;;;5041933;28;20127;-76
2023/09/28 08:27:27;;;;;;;16.80;5.70;;;;;;;;;;5042539;28;20441;-77
2023/09/28 08:29:53;;;;;;;22.95;6.10;;;;;;;;;;5044880;28;20126;-76
2023/09/28 08:32:19;;;;;;;24.77;5.82;;;;;;;;;;5039091;28;20041;-76
2023/09/28 08:34:46;;;;;;;26.00;5.25;;;;;;;;;;5044230;28;20502;-76
2023/09/28 08:37:12;;;;;;;21.05;5.18;;;;;;;;;;5048371;28;20065;-77
2023/09/28 08:39:40;;;;;;;28.73;5.85;;;;;;;;;;5040575;28;20076;-75
2023/09/28 08:42:12;;;;;;;29.02;5.50;;;;;;;;;;5047398;28;20056;-75
2023/09/28 08:44:38;;;;;;;27.63;6.03;;;;;;;;;;5050549;28;20476;-76
2023/09/28 08:47:07;;;;;;;25.67;5.63;;;;;;;;;;5052329;28;20053;-77
2023/09/28 08:49:34;;;;;;;22.02;5.78;;;;;;;;;;5048604;28;20045;-76
2023/09/28 08:52:01;;;;;;;27.95;6.00;;;;;;;;;;5048510;28;20037;-77
2023/09/28 08:54:28;;;;;;;24.98;5.15;;;;;;;;;;5045794;28;20045;-76
2023/09/28 08:56:54;;;;;;;27.92;5.55;;;;;;;;;;5042136;28;20151;-76
2023/09/28 08:59:22;;;;;;;23.92;5.10;;;;;;;;;;5046589;28;20052;-77
2023/09/28 09:01:48;;;;;;;30.35;7.68;;;;;;;;;;5055059;28;20056;-76
2023/09/28 09:04:14;;;;;;;28.38;5.80;;;;;;;;;;5050847;28;20124;-77
2023/09/28 09:06:42;;;;;;;21.30;5.50;;;;;;;;;;5062030;28;20048;-76
2023/09/28 09:09:12;;;;;;;27.30;6.15;;;;;;;;;;5064775;28;20056;-76
2023/09/28 09:11:43;;;;;;;23.83;5.00;;;;;;;;;;5049390;28;20056;-76
2023/09/28 09:14:09;;;;;;;24.50;5.45;;;;;;;;;;5051420;28;20036;-76
2023/09/28 09:16:37;;;;;;;24.17;5.40;;;;;;;;;;5055455;28;20049;-76
2023/09/28 09:19:04;;;;;;;20.42;4.90;;;;;;;;;;5052180;28;20048;-76
2023/09/28 09:21:39;;;;;;;26.52;4.97;;;;;;;;;;5071349;28;20333;-76
2023/09/28 09:24:10;;;;;;;17.33;4.78;;;;;;;;;;5060934;28;20051;-76
2023/09/28 09:26:43;;;;;;;20.08;5.05;;;;;;;;;;5053318;28;20122;-76
2023/09/28 09:29:10;;;;;;;22.95;4.65;;;;;;;;;;5067283;28;20443;-77
2023/09/28 09:31:40;;;;;;;16.85;4.10;;;;;;;;;;5051249;28;20044;-77
2023/09/28 09:34:09;;;;;;;13.80;3.80;;;;;;;;;;5042529;28;20033;-76
2023/09/28 09:36:36;;;;;;;15.45;4.50;;;;;;;;;;5042739;28;20049;-76
2023/09/28 09:39:02;;;;;;;14.68;4.28;;;;;;;;;;5052239;28;20049;-76
2023/09/28 09:41:29;;;;;;;18.77;4.30;;;;;;;;;;5054056;28;20127;-76
2023/09/28 09:43:58;;;;;;;17.35;4.13;;;;;;;;;;5053161;28;20041;-76
2023/09/28 09:46:25;;;;;;;14.55;3.75;;;;;;;;;;5048939;28;20476;-77
2023/09/28 09:48:51;;;;;;;20.02;4.10;;;;;;;;;;5057392;28;20076;-76
2023/09/28 09:51:17;;;;;;;14.82;3.63;;;;;;;;;;5046178;28;20052;-76
2023/09/28 09:53:44;;;;;;;20.20;5.15;;;;;;;;;;5046100;28;20480;-76
2023/09/28 09:56:11;;;;;;;23.17;5.50;;;;;;;;;;5044671;28;20049;-76
2023/09/28 09:58:39;;;;;;;20.80;4.82;;;;;;;;;;5042730;28;20067;-76
2023/09/28 10:01:08;;;;;;;25.67;5.55;;;;;;;;;;5049328;28;20048;-76
2023/09/28 10:03:35;;;;;;;19.83;4.32;;;;;;;;;;5059442;28;20086;-76
2023/09/28 10:06:01;;;;;;;20.85;4.22;;;;;;;;;;5048201;28;20048;-76
2023/09/28 10:08:28;;;;;;;19.73;4.10;;;;;;;;;;5045204;28;20388;-76
2023/09/28 10:10:54;;;;;;;20.42;4.88;;;;;;;;;;5057138;28;20044;-76
2023/09/28 10:13:20;;;;;;;19.13;4.10;;;;;;;;;;5056567;28;20048;-76
2023/09/28 10:15:47;;;;;;;15.70;4.20;;;;;;;;;;5060446;28;20048;-77
2023/09/28 10:18:14;;;;;;;18.30;4.47;;;;;;;;;;5053302;28;20047;-76
2023/09/28 10:20:41;;;;;;;19.02;4.45;;;;;;;;;;5040858;28;20049;-76
2023/09/28 10:23:17;;;;;;;13.43;4.10;;;;;;;;;;5037142;28;20045;-76
2023/09/28 10:25:53;;;;;;;18.83;4.07;;;;;;;;;;5050709;28;20056;-76
2023/09/28 10:28:19;;;;;;;16.88;4.22;;;;;;;;;;5036967;28;20060;-76
2023/09/28 10:30:45;;;;;;;19.23;4.30;;;;;;;;;;5040451;28;20167;-76
2023/09/28 10:33:14;;;;;;;17.08;4.22;;;;;;;;;;5049252;28;20105;-76
2023/09/28 10:35:40;;;;;;;13.70;4.47;;;;;;;;;;5043791;28;20614;-76
2023/09/28 10:38:20;;;;;;;15.90;4.78;;;;;;;;;;5035040;28;20049;-76
2023/09/28 10:41:01;;;;;;;15.23;3.95;;;;;;;;;;5046902;28;20049;-76
2023/09/28 10:43:31;;;;;;;17.15;3.88;;;;;;;;;;5031311;28;20048;-76
2023/09/28 10:46:04;;;;;;;13.02;3.97;;;;;;;;;;5043867;28;20048;-77
2023/09/28 10:48:48;;;;;;;13.98;3.90;;;;;;;;;;5049813;28;20075;-76
2023/09/28 10:51:21;;;;;;;17.63;4.35;;;;;;;;;;5031027;28;20110;-76
2023/09/28 10:53:47;;;;;;;19.60;4.45;;;;;;;;;;5044581;28;20100;-76
2023/09/28 10:56:13;;;;;;;18.15;4.10;;;;;;;;;;5043050;28;20477;-76
2023/09/28 10:58:41;;;;;;;14.30;4.38;;;;;;;;;;5046324;28;20059;-76
2023/09/28 11:01:07;;;;;;;18.27;4.70;;;;;;;;;;5039240;28;20106;-76
2023/09/28 11:03:34;;;;;;;16.20;4.30;;;;;;;;;;5039394;28;20135;-76
2023/09/28 11:06:04;;;;;;;18.10;4.40;;;;;;;;;;5037502;28;20809;-76
2023/09/28 11:08:30;;;;;;;16.02;4.10;;;;;;;;;;5041745;28;20546;-76
2023/09/28 11:10:58;;;;;;;14.90;4.40;;;;;;;;;;5049426;28;20057;-76
2023/09/28 11:13:27;;;;;;;19.60;4.65;;;;;;;;;;5050185;28;20095;-76
2023/09/28 11:15:53;;;;;;;17.45;4.00;;;;;;;;;;5040391;28;20037;-76
2023/09/28 11:18:21;;;;;;;17.48;4.90;;;;;;;;;;5039971;28;20053;-76
2023/09/28 11:20:47;;;;;;;17.65;3.97;;;;;;;;;;5044041;28;20056;-75
2023/09/28 11:23:13;;;;;;;13.77;3.92;;;;;;;;;;5064923;28;20531;-76
2023/09/28 11:25:39;;;;;;;17.10;4.43;;;;;;;;;;5050178;28;20111;-76
2023/09/28 11:28:07;;;;;;;17.13;4.43;;;;;;;;;;5038908;28;20393;-76
2023/09/28 11:30:33;;;;;;;17.85;4.20;;;;;;;;;;5038427;28;20110;-75
2023/09/28 11:33:02;;;;;;;13.32;4.20;;;;;;;;;;5045652;28;20052;-77
2023/09/28 11:35:31;;;;;;;18.25;4.25;;;;;;;;;;5055436;28;20056;-76
2023/09/28 11:38:03;;;;;;;16.15;4.32;;;;;;;;;;5038747;28;20064;-76
2023/09/28 11:40:30;;;;;;;14.25;3.47;;;;;;;;;;5042490;28;20059;-76
2023/09/28 11:43:00;;;;;;;13.45;3.92;;;;;;;;;;5053182;28;20137;-77
2023/09/28 11:45:33;;;;;;;11.55;3.67;;;;;;;;;;5045206;28;20127;-76
2023/09/28 11:48:05;;;;;;;11.95;3.92;;;;;;;;;;5060205;28;20048;-77
2023/09/28 11:50:31;;;;;;;15.20;3.92;;;;;;;;;;5056807;28;20090;-76
2023/09/28 11:52:58;;;;;;;14.05;3.83;;;;;;;;;;5053452;28;20256;-76
2023/09/28 11:55:25;;;;;;;15.23;4.05;;;;;;;;;;5074849;28;20048;-76
2023/09/28 11:57:51;;;;;;;15.60;4.30;;;;;;;;;;5048969;28;20056;-76
2023/09/28 12:00:21;;;;;;;16.92;4.13;;;;;;;;;;5051158;28;20128;-76
2023/09/28 12:02:47;;;;;;;13.20;4.18;;;;;;;;;;5046256;28;20359;-76
2023/09/28 12:05:13;;;;;;;19.15;3.90;;;;;;;;;;5060511;28;20036;-75
2023/09/28 12:07:41;;;;;;;14.98;4.40;;;;;;;;;;5061257;28;20111;-76
2023/09/28 12:10:09;;;;;;;12.85;3.85;;;;;;;;;;5056625;28;20421;-76
2023/09/28 12:12:36;;;;;;;16.88;4.15;;;;;;;;;;5052490;28;20040;-76
2023/09/28 12:15:06;;;;;;;17.75;4.22;;;;;;;;;;5056153;28;20051;-76
2023/09/28 12:17:33;;;;;;;20.70;4.22;;;;;;;;;;5055180;28;20118;-76
2023/09/28 12:19:59;;;;;;;13.73;4.00;;;;;;;;;;5055152;28;20406;-76
2023/09/28 12:22:25;;;;;;;16.35;3.80;;;;;;;;;;5050498;28;20057;-76
2023/09/28 12:24:51;;;;;;;13.75;4.00;;;;;;;;;;5052052;28;20169;-76
2023/09/28 12:27:19;;;;;;;16.30;4.25;;;;;;;;;;5050689;28;20088;-77
2023/09/28 12:29:45;;;;;;;13.82;3.92;;;;;;;;;;5051769;28;20052;-76
2023/09/28 12:32:11;;;;;;;15.98;3.67;;;;;;;;;;5060596;28;20065;-76
2023/09/28 12:34:38;;;;;;;14.30;4.40;;;;;;;;;;5061787;28;20064;-76
2023/09/28 12:37:04;;;;;;;22.63;4.47;;;;;;;;;;5066942;28;20435;-76
2023/09/28 12:39:32;;;;;;;17.08;3.72;;;;;;;;;;5036157;28;20485;-76
2023/09/28 12:41:58;;;;;;;18.73;4.65;;;;;;;;;;5054166;28;20256;-77
2023/09/28 12:44:26;;;;;;;20.05;4.78;;;;;;;;;;5054740;28;20545;-76
2023/09/28 12:46:52;;;;;;;15.73;4.03;;;;;;;;;;5055039;28;20095;-76
2023/09/28 12:49:20;;;;;;;17.52;4.63;;;;;;;;;;5040197;28;20059;-76
2023/09/28 12:51:47;;;;;;;19.85;4.68;;;;;;;;;;5038820;28;20151;-77
2023/09/28 12:54:20;;;;;;;20.55;4.32;;;;;;;;;;5048531;28;20536;-76
2023/09/28 12:56:46;;;;;;;17.00;4.63;;;;;;;;;;5065680;28;20045;-76
2023/09/28 12:59:16;;;;;;;23.08;4.95;;;;;;;;;;5068268;28;20378;-76
2023/09/28 13:01:42;;;;;;;16.10;4.40;;;;;;;;;;5054173;28;20076;-76
2023/09/28 13:04:11;;;;;;;14.57;4.28;;;;;;;;;;5054011;28;20052;-76
2023/09/28 13:06:37;;;;;;;17.15;4.35;;;;;;;;;;5067594;28;20052;-76
2023/09/28 13:09:06;;;;;;;16.35;4.93;;;;;;;;;;5053100;28;20045;-76
2023/09/28 13:11:33;;;;;;;14.88;5.28;;;;;;;;;;5050465;28;20488;-76
2023/09/28 13:13:59;;;;;;;20.98;4.53;;;;;;;;;;5043997;28;20033;-76
2023/09/28 13:16:25;;;;;;;17.70;4.25;;;;;;;;;;5055050;28;20048;-76
2023/09/28 13:18:51;;;;;;;15.38;4.82;;;;;;;;;;5053127;28;20055;-76
2023/09/28 13:21:19;;;;;;;18.20;4.53;;;;;;;;;;5070948;28;20516;-76
2023/09/28 13:23:45;;;;;;;15.98;4.53;;;;;;;;;;5055357;28;20403;-76
2023/09/28 13:26:13;;;;;;;19.42;4.85;;;;;;;;;;5054846;28;20123;-76
2023/09/28 13:28:39;;;;;;;18.65;4.18;;;;;;;;;;5050085;28;20775;-77
2023/09/28 13:31:07;;;;;;;17.13;4.25;;;;;;;;;;5050396;28;20432;-76
2023/09/28 13:33:36;;;;;;;14.30;4.35;;;;;;;;;;5046062;28;20131;-76
2023/09/28 13:36:04;;;;;;;16.70;4.78;;;;;;;;;;5049404;28;20558;-77
2023/09/28 13:38:30;;;;;;;23.13;5.10;;;;;;;;;;5052815;28;20434;-76
2023/09/28 13:40:58;;;;;;;14.90;4.68;;;;;;;;;;5051300;28;20481;-76
2023/09/28 13:43:24;;;;;;;20.20;5.07;;;;;;;;;;5047448;28;20045;-76
2023/09/28 13:45:50;;;;;;;15.60;4.90;;;;;;;;;;5052646;28;20044;-77
2023/09/28 13:48:16;;;;;;;18.80;4.78;;;;;;;;;;5054770;28;20131;-77
2023/09/28 13:50:44;;;;;;;26.00;4.55;;;;;;;;;;5049548;28;20124;-77
2023/09/28 13:53:11;;;;;;;18.27;4.60;;;;;;;;;;5052524;28;20052;-77
2023/09/28 13:55:37;;;;;;;16.55;4.68;;;;;;;;;;5046078;28;20052;-77
2023/09/28 13:58:04;;;;;;;18.08;4.68;;;;;;;;;;5049092;28;20043;-77
2023/09/28 14:00:39;;;;;;;17.92;4.63;;;;;;;;;;5038747;28;20044;-77
2023/09/28 14:03:05;;;;;;;15.73;3.90;;;;;;;;;;5041520;28;20466;-77
2023/09/28 14:05:32;;;;;;;17.10;4.28;;;;;;;;;;5039148;28;20044;-76
2023/09/28 14:07:59;;;;;;;15.57;3.92;;;;;;;;;;5051955;28;20056;-76
2023/09/28 14:10:26;;;;;;;14.20;3.90;;;;;;;;;;5065838;28;20052;-77
2023/09/28 14:12:52;;;;;;;16.02;4.28;;;;;;;;;;5064065;28;20472;-77
2023/09/28 14:15:19;;;;;;;11.02;3.20;;;;;;;;;;5037548;28;20049;-76
2023/09/28 14:17:45;;;;;;;12.95;3.58;;;;;;;;;;5033982;28;20044;-76
2023/09/28 14:20:12;;;;;;;14.43;3.78;;;;;;;;;;5059387;28;20416;-76
2023/09/28 14:22:39;;;;;;;13.30;3.70;;;;;;;;;;5070524;28;20058;-76
2023/09/28 14:25:06;;;;;;;12.45;3.55;;;;;;;;;;5053612;28;20113;-76
2023/09/28 14:27:35;;;;;;;10.88;3.17;;;;;;;;;;5056553;28;20107;-76